Skip Navigation Links
NOAA logo - Click to go to the NOAA homepage
NOAA's National Weather Service
Alaska Aviation Weather Unit
  NWS logo - Click to go to the NWS homepage
Left Navbar Graphic     09 AKDT = 17 GMT

   
NOAA is celebrating 200 years of science, service, and stewardship. Visit the NOAA 200th celebration Web site to learn more.
USA.gov is the U.S. Government's official Web portal to all Federal, state and local government Web resources and services.
Facebook
NWS on Facebook

Important Change Regarding the AAWU Web Presence

 

Over the last several months, the AAWU has been working to navigate its webpages to a nationally supported server. Security, as well as other needs, have necessitated the change.  In the process, we have made an effort to enhance the functionality of our website, as well as some of our products. As of June 20, 2017, aawu.arh.noaa.gov will be discontinued. The new AAWU web address is weather.gov/aawu. It is now live and will run in-parallel with the old site until it is discontinued. Please send any feedback or questions regarding the new webpages to nws.ar.aawu.webauthors@noaa.gov.  Thank you for your patience during this time of transition.
AAWU Home :: Display TAF Add Bookmark
METAR PATO 231153Z AUTO 00000KT 8SM OVC047 01/01 A3000 RMK AO2 SLP160
     70002 T00110006 10061 20006 51002 TSNO=

SPECI PATO 231225Z AUTO 00000KT 9SM FEW002 BKN050 02/01 A3000 RMK
    AO2 T00170011 TSNO=

METAR PATO 231253Z AUTO 00000KT 9SM BKN004 OVC050 02/01 A3001 RMK AO2
     SLP162 T00170011 TSNO=

SPECI PATO 231322Z AUTO 00000KT 6SM BR SCT004 BKN055 01/01 A3000 RMK AO2
     T00110006 TSNO=

METAR PATO 231353Z AUTO 00000KT 5SM BR FEW002 FEW055 01/00 A3000 RMK AO2
     SLP160 T00060000 TSNO=

SPECI PATO 231414Z AUTO 00000KT 6SM BR BKN003 01/00 A3001 RMK AO2
     T00110000 TSNO=

METAR PATO 231453Z AUTO 00000KT 5SM BR OVC002 02/02 A3001 RMK AO2 SLP162
     T00220017 53003 TSNO=

SPECI PATO 231507Z AUTO 00000KT 1 3/4SM BR BKN003 BKN049 02/02 A3001 RMK
     AO2 T00220017 TSNO=

SPECI PATO 231520Z AUTO 00000KT 3/4SM BR SCT003 BKN049 03/02 A3001 RMK
     AO2 T00330022 TSNO=

SPECI PATO 231527Z AUTO 00000KT 1 1/4SM BR SCT003 BKN039 BKN049 03/02
     A3001 RMK AO2 VIS 1/2V5 T00280022 TSNO=

SPECI PATO 231534Z AUTO 00000KT 3SM BR SCT003 BKN039 03/03 A3000 RMK AO2
     T00330028 TSNO=

SPECI PATO 231543Z AUTO 10003KT 3/4SM BR SCT003 SCT041 03/02 A3000
    RMK AO2 T00280022 TSNO=

SPECI PATO 231547Z AUTO 00000KT 1/4SM FG BKN003 BKN040 02/02 A3000 RMK
     AO2 TSNO=

METAR PATO 231553Z AUTO 00000KT 1/4SM FG BKN002 BKN040 03/02 A3000
    RMK AO2 SLP160 T00280022 TSNO=

SPECI PATO 231603Z AUTO 00000KT 1/2SM FG VV002 03/03 A3000 RMK AO2
     T00280028 TSNO=

SPECI PATO 231621Z AUTO 00000KT 2SM BR BKN002 03/03 A3000 RMK AO2
     T00330033 TSNO=

SPECI PATO 231628Z AUTO 00000KT 10SM BKN002 04/03 A3000 RMK AO2
     T00390033 TSNO=

SPECI PATO 231639Z AUTO 00000KT 10SM FEW002 04/03 A3000 RMK AO2
    T00440033 TSNO=

METAR PATO 231653Z AUTO 01003KT 10SM CLR 06/04 A3000 RMK AO2 SLP159
     T00560039 TSNO=


NOAA's National Weather Service
Alaska Aviation Weather Unit
6930 Sand Lake Road
Anchorage, AK 99502-1845
Disclaimer
Credits
Glossary
Privacy Policy
About Us
Career Opportunities
Contact AAWU Internet Services Site last modified: April, 17th 2012